createdAt,value
2022-10-17T00:01:42.963Z,13.61
2022-10-17T00:04:28.054Z,13.59
2022-10-17T00:07:12.958Z,13.57
2022-10-17T00:09:58.193Z,13.56
2022-10-17T00:12:43.123Z,13.48
2022-10-17T00:15:28.103Z,13.47
2022-10-17T00:18:13.265Z,13.49
2022-10-17T00:20:58.588Z,13.46
2022-10-17T00:23:44.264Z,13.46
2022-10-17T00:26:29.650Z,13.45
2022-10-17T00:29:15.058Z,13.46
2022-10-17T00:32:00.236Z,13.58
2022-10-17T00:34:45.033Z,13.62
2022-10-17T00:37:31.522Z,13.71
2022-10-17T00:40:16.392Z,13.73
2022-10-17T00:43:01.407Z,13.71
2022-10-17T00:45:46.214Z,13.65
2022-10-17T00:48:31.234Z,13.61
2022-10-17T00:51:19.529Z,13.59
2022-10-17T00:54:05.274Z,13.65
2022-10-17T00:56:51.420Z,13.61
2022-10-17T00:59:40.168Z,13.59
2022-10-17T01:02:25.585Z,13.65
2022-10-17T01:05:11.554Z,13.63
2022-10-17T01:07:56.990Z,13.62
2022-10-17T01:11:04.884Z,13.49
2022-10-17T01:13:56.199Z,13.45
2022-10-17T01:17:02.592Z,13.46
2022-10-17T01:20:13.381Z,13.42
2022-10-17T01:23:22.544Z,13.41
2022-10-17T01:26:21.880Z,13.38
2022-10-17T01:29:31.557Z,13.31
2022-10-17T01:32:22.971Z,13.31
2022-10-17T01:35:25.501Z,13.32
2022-10-17T01:38:17.434Z,13.29
2022-10-17T01:41:09.754Z,13.29
2022-10-17T01:44:11.107Z,13.25
2022-10-17T01:47:03.135Z,13.19
2022-10-17T01:49:51.298Z,13.09
2022-10-17T01:52:51.007Z,13.05
2022-10-17T01:55:40.354Z,12.99
2022-10-17T01:58:31.451Z,13.03
2022-10-17T02:01:18.152Z,12.94
2022-10-17T02:04:05.361Z,12.92
2022-10-17T02:06:50.472Z,12.96
2022-10-17T02:09:36.247Z,12.93
2022-10-17T02:12:42.230Z,12.91
2022-10-17T02:15:29.722Z,12.90
2022-10-17T02:18:30.644Z,12.88
2022-10-17T02:21:24.417Z,12.83
2022-10-17T02:24:18.142Z,12.86
2022-10-17T02:27:26.329Z,12.89
2022-10-17T02:30:20.662Z,12.84
2022-10-17T02:33:25.451Z,12.86
2022-10-17T02:36:19.006Z,12.78
2022-10-17T02:39:06.480Z,12.83
2022-10-17T02:41:52.588Z,12.78
2022-10-17T02:44:40.532Z,12.82
2022-10-17T02:47:29.366Z,12.83
2022-10-17T02:50:14.645Z,12.84
2022-10-17T02:53:10.699Z,12.84
2022-10-17T02:55:59.990Z,12.88
2022-10-17T02:58:55.844Z,12.87
2022-10-17T03:01:41.916Z,12.91
2022-10-17T03:04:26.916Z,12.91
2022-10-17T03:07:12.173Z,12.89
2022-10-17T03:09:56.952Z,12.95
2022-10-17T03:12:41.868Z,12.98
2022-10-17T03:15:26.994Z,13.05
2022-10-17T03:18:12.439Z,13.03
2022-10-17T03:20:57.338Z,13.01
2022-10-17T03:23:42.182Z,12.98
2022-10-17T03:26:29.373Z,12.98
2022-10-17T03:29:14.487Z,12.95
2022-10-17T03:31:59.583Z,12.98
2022-10-17T03:34:44.402Z,12.99
2022-10-17T03:37:30.073Z,12.99
2022-10-17T03:40:15.567Z,12.97
2022-10-17T03:43:00.591Z,13.00
2022-10-17T03:45:45.426Z,13.04
2022-10-17T03:48:31.288Z,13.06
2022-10-17T03:51:16.337Z,13.05
2022-10-17T03:54:01.387Z,13.10
2022-10-17T03:56:46.581Z,13.09
2022-10-17T03:59:31.887Z,13.06
2022-10-17T04:02:16.602Z,13.04
2022-10-17T04:05:01.891Z,13.04
2022-10-17T04:07:46.871Z,13.03
2022-10-17T04:10:31.960Z,12.98
2022-10-17T04:13:17.058Z,12.94
2022-10-17T04:16:08.833Z,12.90
2022-10-17T04:18:55.664Z,12.86
2022-10-17T04:21:40.831Z,12.89
2022-10-17T04:24:26.362Z,12.82
2022-10-17T04:27:11.681Z,12.84
2022-10-17T04:29:56.808Z,12.87
2022-10-17T04:32:41.742Z,12.88
2022-10-17T04:35:27.123Z,12.87
2022-10-17T04:38:11.791Z,12.87
2022-10-17T04:40:58.411Z,12.88
2022-10-17T04:43:46.921Z,12.90
2022-10-17T04:46:35.338Z,12.99
2022-10-17T04:49:20.500Z,13.03
2022-10-17T04:52:05.562Z,13.23
2022-10-17T04:54:50.718Z,13.21
2022-10-17T04:57:35.801Z,13.15
2022-10-17T05:00:20.541Z,13.11
2022-10-17T05:03:05.669Z,13.37
2022-10-17T05:05:51.368Z,13.67
2022-10-17T05:08:36.419Z,14.05
2022-10-17T05:11:30.537Z,14.31
2022-10-17T05:14:15.920Z,14.11
2022-10-17T05:17:00.788Z,14.20
2022-10-17T05:19:45.723Z,14.17
2022-10-17T05:22:31.146Z,14.17
2022-10-17T05:25:16.567Z,14.15
2022-10-17T05:28:01.682Z,14.15
2022-10-17T05:30:46.821Z,14.10
2022-10-17T05:33:32.489Z,14.04
2022-10-17T05:36:17.560Z,14.03
2022-10-17T05:39:03.080Z,13.97
2022-10-17T05:41:47.932Z,14.01
2022-10-17T05:44:33.276Z,14.05
2022-10-17T05:47:18.264Z,14.11
2022-10-17T05:50:03.536Z,14.09
2022-10-17T05:52:52.972Z,14.08
2022-10-17T05:55:38.089Z,14.14
2022-10-17T05:58:45.634Z,14.22
2022-10-17T06:01:28.390Z,14.12
2022-10-17T06:04:13.330Z,14.18
2022-10-17T06:06:58.529Z,14.27
2022-10-17T06:09:43.769Z,14.25
2022-10-17T06:12:29.093Z,14.28
2022-10-17T06:15:14.093Z,14.37
2022-10-17T06:17:58.884Z,14.45
2022-10-17T06:20:46.090Z,14.53
2022-10-17T06:23:31.300Z,14.52
2022-10-17T06:26:16.062Z,14.43
2022-10-17T06:29:01.465Z,14.35
2022-10-17T06:31:46.803Z,14.34
2022-10-17T06:34:32.218Z,14.36
2022-10-17T06:37:17.284Z,14.49
2022-10-17T06:40:02.624Z,14.34
2022-10-17T06:42:47.928Z,14.38
2022-10-17T06:45:32.748Z,14.46
2022-10-17T06:48:17.803Z,14.58
2022-10-17T06:51:05.265Z,14.66
2022-10-17T06:53:50.324Z,14.77
2022-10-17T06:56:35.587Z,14.88
2022-10-17T06:59:20.688Z,14.99
2022-10-17T07:02:06.426Z,15.09
2022-10-17T07:04:51.189Z,15.19
2022-10-17T07:07:40.021Z,15.29
2022-10-17T07:10:28.032Z,15.42
2022-10-17T07:13:13.069Z,15.48
2022-10-17T07:16:01.570Z,15.52
2022-10-17T07:18:50.012Z,15.57
2022-10-17T07:21:38.161Z,15.62
2022-10-17T07:24:24.409Z,15.67
2022-10-17T07:27:09.590Z,15.67
2022-10-17T07:29:54.504Z,15.65
2022-10-17T07:32:39.741Z,15.64
2022-10-17T07:35:24.861Z,15.71
2022-10-17T07:38:09.875Z,15.82
2022-10-17T07:40:59.500Z,15.90
2022-10-17T07:43:44.728Z,15.99
2022-10-17T07:46:29.714Z,16.06
2022-10-17T07:49:14.832Z,16.13
2022-10-17T07:51:59.781Z,16.18
2022-10-17T07:54:44.695Z,16.25
2022-10-17T07:57:29.838Z,16.30
2022-10-17T08:00:15.127Z,16.40
2022-10-17T08:03:00.052Z,16.46
2022-10-17T08:05:45.050Z,16.53
2022-10-17T08:08:30.359Z,16.64
2022-10-17T08:11:16.035Z,16.79
2022-10-17T08:14:01.296Z,16.99
2022-10-17T08:16:46.384Z,17.05
2022-10-17T08:19:31.343Z,17.16
2022-10-17T08:22:16.511Z,17.24
2022-10-17T08:25:01.479Z,17.18
2022-10-17T08:27:46.579Z,17.23
2022-10-17T08:30:31.501Z,17.41
2022-10-17T08:33:16.621Z,17.56
2022-10-17T08:36:03.124Z,17.54
2022-10-17T08:38:52.582Z,17.68
2022-10-17T08:41:45.514Z,17.70
2022-10-17T08:44:42.196Z,17.79
2022-10-17T08:47:38.089Z,17.80
2022-10-17T08:50:40.263Z,17.87
2022-10-17T08:53:38.332Z,17.90
2022-10-17T08:56:43.967Z,17.97
2022-10-17T08:59:31.342Z,18.21
2022-10-17T09:02:16.166Z,18.31
2022-10-17T09:05:30.381Z,18.21
2022-10-17T09:08:24.414Z,18.22
2022-10-17T09:11:31.374Z,18.35
2022-10-17T09:14:27.581Z,18.54
2022-10-17T09:17:32.778Z,18.92
2022-10-17T09:20:32.657Z,18.80
2022-10-17T09:23:19.768Z,18.70
2022-10-17T09:26:05.106Z,19.00
2022-10-17T09:28:56.442Z,19.31
2022-10-17T09:31:47.813Z,19.25
2022-10-17T09:34:32.991Z,19.23
2022-10-17T09:37:18.380Z,18.99
2022-10-17T09:40:07.722Z,18.87
2022-10-17T09:42:53.370Z,18.74
2022-10-17T09:45:49.746Z,18.76
2022-10-17T09:48:43.314Z,18.77
2022-10-17T09:51:28.386Z,18.82
2022-10-17T09:54:32.248Z,19.02
2022-10-17T09:57:19.520Z,19.24
2022-10-17T10:00:06.176Z,19.29
2022-10-17T10:02:50.996Z,19.41
2022-10-17T10:05:36.322Z,19.52
2022-10-17T10:08:21.859Z,19.70
2022-10-17T10:11:13.357Z,19.90
2022-10-17T10:14:11.983Z,20.12
2022-10-17T10:16:56.728Z,20.51
2022-10-17T10:19:50.292Z,20.13
2022-10-17T10:22:35.242Z,19.93
2022-10-17T10:25:20.340Z,19.98
2022-10-17T10:28:11.919Z,20.04
2022-10-17T10:31:00.002Z,20.24
2022-10-17T10:33:49.435Z,20.23
2022-10-17T10:36:56.635Z,20.27
2022-10-17T10:39:47.211Z,20.25
2022-10-17T10:42:36.938Z,20.23
2022-10-17T10:45:47.991Z,20.19
2022-10-17T10:48:36.919Z,20.20
2022-10-17T10:51:28.691Z,20.29
2022-10-17T10:54:23.564Z,20.33
2022-10-17T10:57:19.821Z,20.39
2022-10-17T11:00:15.534Z,20.35
2022-10-17T11:03:04.128Z,20.37
2022-10-17T11:05:57.762Z,20.31
2022-10-17T11:08:54.195Z,20.27
2022-10-17T11:11:47.912Z,20.36
2022-10-17T11:14:40.052Z,20.52
2022-10-17T11:17:39.032Z,20.45
2022-10-17T11:20:48.891Z,20.34
2022-10-17T11:23:59.218Z,20.25
2022-10-17T11:26:57.023Z,20.31
2022-10-17T11:29:43.235Z,20.42
2022-10-17T11:32:34.757Z,20.41
2022-10-17T11:35:27.650Z,20.34
2022-10-17T11:38:29.533Z,20.38
2022-10-17T11:41:37.692Z,20.36
2022-10-17T11:44:34.100Z,20.34
2022-10-17T11:47:45.831Z,20.16
2022-10-17T11:54:08.225Z,20.17
2022-10-17T11:57:16.218Z,20.30
2022-10-17T12:00:19.746Z,20.27
2022-10-17T12:03:29.648Z,20.13
2022-10-17T12:06:29.476Z,20.09
2022-10-17T12:09:32.560Z,19.98
2022-10-17T12:12:24.625Z,19.98
2022-10-17T12:15:12.439Z,19.96
2022-10-17T12:18:02.380Z,19.88
2022-10-17T12:20:58.318Z,19.81
2022-10-17T12:23:52.288Z,19.69
2022-10-17T12:26:38.009Z,19.56
2022-10-17T12:29:39.156Z,19.55
2022-10-17T12:32:24.239Z,19.24
2022-10-17T12:35:20.818Z,19.22
2022-10-17T12:38:21.451Z,19.25
2022-10-17T12:41:06.763Z,19.31
2022-10-17T12:43:53.608Z,19.30
2022-10-17T12:46:53.382Z,19.35
2022-10-17T12:49:54.335Z,19.36
2022-10-17T12:52:41.708Z,19.27
2022-10-17T12:55:27.034Z,19.37
2022-10-17T12:58:16.226Z,19.43
2022-10-17T13:01:23.158Z,19.33
2022-10-17T13:04:10.028Z,19.54
2022-10-17T13:06:57.598Z,19.58
2022-10-17T13:09:44.271Z,19.57
2022-10-17T13:12:29.310Z,19.62
2022-10-17T13:15:18.929Z,19.69
2022-10-17T13:18:04.428Z,19.66
2022-10-17T13:21:00.578Z,19.51
2022-10-17T13:23:47.527Z,19.47
2022-10-17T13:26:32.488Z,19.47
2022-10-17T13:29:19.185Z,19.73
2022-10-17T13:32:05.679Z,19.74
2022-10-17T13:35:16.980Z,19.91
2022-10-17T13:38:06.713Z,20.11
2022-10-17T13:40:51.566Z,20.29
2022-10-17T13:43:36.786Z,20.39
2022-10-17T13:46:38.364Z,20.40
2022-10-17T13:49:34.605Z,20.39
2022-10-17T13:52:22.275Z,20.32
2022-10-17T13:55:17.518Z,20.19
2022-10-17T13:58:16.504Z,20.37
2022-10-17T14:01:01.897Z,20.48
2022-10-17T14:03:49.792Z,20.58
2022-10-17T14:06:47.582Z,20.69
2022-10-17T14:09:36.237Z,20.62
2022-10-17T14:12:22.535Z,20.66
2022-10-17T14:15:13.506Z,20.63
2022-10-17T14:18:07.703Z,20.61
2022-10-17T14:24:23.047Z,20.76
2022-10-17T14:27:26.796Z,20.65
2022-10-17T14:30:51.518Z,20.57
2022-10-17T14:33:31.838Z,20.58
2022-10-17T14:36:16.900Z,20.53
2022-10-17T14:39:03.591Z,20.73
2022-10-17T14:41:49.669Z,20.60
2022-10-17T14:44:36.046Z,20.36
2022-10-17T14:47:44.012Z,20.46
2022-10-17T14:50:31.832Z,20.43
2022-10-17T14:53:16.440Z,20.40
2022-10-17T14:56:20.768Z,20.27
2022-10-17T14:59:11.115Z,20.24
2022-10-17T15:01:56.809Z,20.19
2022-10-17T15:04:42.036Z,20.22
2022-10-17T15:07:27.263Z,20.24
2022-10-17T15:10:36.937Z,20.18
2022-10-17T15:13:32.134Z,20.03
2022-10-17T15:16:22.575Z,19.99
2022-10-17T15:19:08.692Z,20.15
2022-10-17T15:21:53.615Z,20.14
2022-10-17T15:24:39.542Z,20.06
2022-10-17T15:27:26.197Z,20.18
2022-10-17T15:30:21.922Z,20.09
2022-10-17T15:33:06.909Z,19.97
2022-10-17T15:35:51.956Z,19.79
2022-10-17T15:38:36.982Z,19.55
2022-10-17T15:41:24.224Z,19.76
2022-10-17T15:44:09.041Z,19.88
2022-10-17T15:46:55.499Z,19.89
2022-10-17T15:49:40.710Z,19.83
2022-10-17T15:52:26.523Z,19.86
2022-10-17T15:55:11.419Z,19.75
2022-10-17T15:57:56.664Z,19.74
2022-10-17T16:00:41.546Z,19.72
2022-10-17T16:03:28.080Z,19.69
2022-10-17T16:06:14.224Z,19.52
2022-10-17T16:08:59.342Z,19.38
2022-10-17T16:11:44.914Z,19.33
2022-10-17T16:14:29.684Z,19.35
2022-10-17T16:17:16.232Z,19.37
2022-10-17T16:20:01.281Z,19.41
2022-10-17T16:22:46.491Z,19.44
2022-10-17T16:25:32.309Z,19.38
2022-10-17T16:28:17.460Z,19.33
2022-10-17T16:31:02.696Z,19.31
2022-10-17T16:33:49.588Z,19.40
2022-10-17T16:36:34.915Z,19.38
2022-10-17T16:39:19.940Z,19.26
2022-10-17T16:42:05.222Z,19.11
2022-10-17T16:44:50.753Z,19.00
2022-10-17T16:47:35.747Z,18.89
2022-10-17T16:50:20.992Z,18.78
2022-10-17T16:53:06.135Z,18.64
2022-10-17T16:56:01.774Z,18.58
2022-10-17T16:58:47.808Z,18.47
2022-10-17T17:01:32.590Z,18.39
2022-10-17T17:04:17.549Z,18.27
2022-10-17T17:07:03.013Z,18.19
2022-10-17T17:09:48.786Z,18.16
2022-10-17T17:12:35.971Z,18.11
2022-10-17T17:15:20.778Z,18.05
2022-10-17T17:18:06.207Z,18.00
2022-10-17T17:20:51.660Z,17.96
2022-10-17T17:23:39.711Z,17.90
2022-10-17T17:26:26.117Z,17.84
2022-10-17T17:29:13.695Z,17.82
2022-10-17T17:31:58.647Z,17.77
2022-10-17T17:34:43.528Z,17.75
2022-10-17T17:37:29.241Z,17.71
2022-10-17T17:40:14.130Z,17.69
2022-10-17T17:45:49.667Z,17.62
2022-10-17T17:48:38.096Z,17.57
2022-10-17T17:51:28.440Z,17.54
2022-10-17T17:54:14.114Z,17.45
2022-10-17T17:56:58.879Z,17.43
2022-10-17T17:59:43.959Z,17.40
2022-10-17T18:02:29.264Z,17.39
2022-10-17T18:05:14.876Z,17.36
2022-10-17T18:07:59.882Z,17.34
2022-10-17T18:10:49.370Z,17.32
2022-10-17T18:13:34.447Z,17.30
2022-10-17T18:16:19.569Z,17.27
2022-10-17T18:19:07.232Z,17.24
2022-10-17T18:21:52.033Z,17.25
2022-10-17T18:24:37.228Z,17.24
2022-10-17T18:27:22.196Z,17.25
2022-10-17T18:30:08.379Z,17.21
2022-10-17T18:32:53.408Z,17.15
2022-10-17T18:35:38.524Z,17.13
2022-10-17T18:38:23.655Z,17.09
2022-10-17T18:41:16.938Z,17.07
2022-10-17T18:44:05.208Z,17.07
2022-10-17T18:46:50.732Z,17.02
2022-10-17T18:49:36.564Z,16.95
2022-10-17T18:52:21.457Z,16.90
2022-10-17T18:55:07.354Z,16.90
2022-10-17T18:57:52.987Z,16.88
2022-10-17T19:00:38.014Z,16.82
2022-10-17T19:03:23.167Z,16.77
2022-10-17T19:06:09.906Z,16.75
2022-10-17T19:08:55.079Z,16.73
2022-10-17T19:11:40.102Z,16.71
2022-10-17T19:14:26.140Z,16.61
2022-10-17T19:17:11.390Z,16.61
2022-10-17T19:19:56.521Z,16.59
2022-10-17T19:22:41.571Z,16.56
2022-10-17T19:25:26.522Z,16.56
2022-10-17T19:28:11.596Z,16.51
2022-10-17T19:30:57.028Z,16.46
2022-10-17T19:33:42.137Z,16.39
2022-10-17T19:36:33.189Z,16.44
2022-10-17T19:39:22.756Z,16.39
2022-10-17T19:42:07.496Z,16.37
2022-10-17T19:44:52.395Z,16.34
2022-10-17T19:47:38.383Z,16.33
2022-10-17T19:50:23.441Z,16.26
2022-10-17T19:53:08.547Z,16.29
2022-10-17T19:55:53.630Z,16.23
2022-10-17T19:58:46.347Z,16.17
2022-10-17T20:01:35.613Z,16.16
2022-10-17T20:04:21.820Z,16.18
2022-10-17T20:07:07.007Z,16.13
2022-10-17T20:09:51.868Z,16.06
2022-10-17T20:12:37.064Z,16.01
2022-10-17T20:15:22.150Z,16.00
2022-10-17T20:18:08.217Z,15.88
2022-10-17T20:20:54.091Z,15.82
2022-10-17T20:23:40.118Z,15.73
2022-10-17T20:26:37.513Z,15.77
2022-10-17T20:29:23.944Z,15.92
2022-10-17T20:32:09.300Z,15.92
2022-10-17T20:34:54.436Z,15.93
2022-10-17T20:37:42.417Z,15.91
2022-10-17T20:40:35.222Z,15.91
2022-10-17T20:43:20.521Z,15.92
2022-10-17T20:46:22.789Z,15.91
2022-10-17T20:49:10.899Z,15.90
2022-10-17T20:51:55.804Z,15.89
2022-10-17T20:54:40.867Z,15.91
2022-10-17T20:57:25.782Z,15.79
2022-10-17T21:00:11.549Z,15.65
2022-10-17T21:05:46.545Z,15.75
2022-10-17T21:08:31.645Z,15.80
2022-10-17T21:11:21.612Z,15.81
2022-10-17T21:14:07.701Z,15.80
2022-10-17T21:16:52.675Z,15.78
2022-10-17T21:19:37.828Z,15.76
2022-10-17T21:22:23.015Z,15.73
2022-10-17T21:25:08.361Z,15.71
2022-10-17T21:27:53.403Z,15.74
2022-10-17T21:30:38.510Z,15.70
2022-10-17T21:33:23.661Z,15.70
2022-10-17T21:36:09.842Z,15.67
2022-10-17T21:38:56.775Z,15.62
2022-10-17T21:41:43.255Z,15.63
2022-10-17T21:44:27.990Z,15.62
2022-10-17T21:47:14.804Z,15.61
2022-10-17T21:49:59.620Z,15.61
2022-10-17T21:52:44.411Z,15.56
2022-10-17T21:55:29.584Z,15.57
2022-10-17T21:58:14.730Z,15.56
2022-10-17T22:01:10.490Z,15.58
2022-10-17T22:04:01.151Z,15.59
2022-10-17T22:06:48.098Z,15.58
2022-10-17T22:09:33.230Z,15.57
2022-10-17T22:12:18.637Z,15.57
2022-10-17T22:15:04.310Z,15.57
2022-10-17T22:17:49.236Z,15.57
2022-10-17T22:20:34.985Z,15.54
2022-10-17T22:23:20.763Z,15.52
2022-10-17T22:26:07.093Z,15.50
2022-10-17T22:28:52.087Z,15.47
2022-10-17T22:31:38.564Z,15.49
2022-10-17T22:34:23.491Z,15.54
2022-10-17T22:37:08.551Z,15.53
2022-10-17T22:39:53.696Z,15.54
2022-10-17T22:42:38.608Z,15.48
2022-10-17T22:45:23.656Z,15.49
2022-10-17T22:48:08.970Z,15.48
2022-10-17T22:50:55.076Z,15.49
2022-10-17T22:53:39.898Z,15.36
2022-10-17T22:56:25.163Z,15.37
2022-10-17T22:59:10.215Z,15.44
2022-10-17T23:01:55.763Z,15.44
2022-10-17T23:04:41.590Z,15.42
2022-10-17T23:07:27.458Z,15.45
2022-10-17T23:10:12.386Z,15.47
2022-10-17T23:12:57.421Z,15.42
2022-10-17T23:15:43.147Z,15.40
2022-10-17T23:18:28.133Z,15.39
2022-10-17T23:21:13.371Z,15.38
2022-10-17T23:23:58.483Z,15.38
2022-10-17T23:26:43.318Z,15.46
2022-10-17T23:29:33.200Z,15.48
2022-10-17T23:32:20.002Z,15.40
2022-10-17T23:35:05.437Z,15.39
2022-10-17T23:37:50.600Z,15.41
2022-10-17T23:40:35.941Z,15.42
2022-10-17T23:43:20.782Z,15.34
2022-10-17T23:46:06.507Z,15.32
2022-10-17T23:48:51.628Z,15.33
2022-10-17T23:51:36.769Z,15.34
2022-10-17T23:54:21.836Z,15.38
2022-10-17T23:57:07.878Z,15.35
2022-10-17T23:59:52.898Z,15.35
